Opelousas St Landry Parish Ai, LA

12:13 PM CDT on September 21, 2014 (GMT -0500)
Evangeline Sub. | Change Station
CLOSE
Current Station
Personal Weather Station
Location: Opelousas, LA
Elevation: 82 ft
Nearby Weather Stations

Elev 82 ft 30.58 °N, 92.08 °W | Updated 10 minutes ago

Clear
Clear
88.2 °F
Feels Like 97 °F
N
2.2
Wind Variable Wind from NW

Today
High -- | Low -- °F
--% Chance of Precip.
Yesterday
High -- | Low -- °F
Precip. -- in
6:56 AM 7:06 PM
Waning Crescent, 6% visible
Pressure 30.05 in
Visibility 10.0 miles
Clouds Scattered Clouds 3000 ft
Scattered Clouds 3600 ft
Heat Index 97 °F
Dew Point 74 °F
Humidity 62%
Rainfall 0.00 in
Snow Depth Not available.
UV 8 out of 12
Pollen 10.50 out of 12
Air Quality Not available.
Flu Activity Not available.
METAR KOPL 211655Z AUTO 05005KT 10SM SCT030 SCT036 29/22 A3005 RMK AO2 T02890219

More Conditions Fewer Conditions

Pressure 30.05 in
Visibility 10.0 miles
Clouds Scattered Clouds 3000 ft
Scattered Clouds 3600 ft
Heat Index 97 °F
Dew Point 74 °F
Humidity 62%
Rainfall 0.00 in
Snow Depth Not available.
UV 8 out of 12
Pollen 10.50 out of 12
Air Quality Not available.
Flu Activity Not available.
METAR KOPL 211655Z AUTO 05005KT 10SM SCT030 SCT036 29/22 A3005 RMK AO2 T02890219

More Conditions Fewer Conditions

10-Day Weather Forecast

Almanac

Astronomy

Sep. 21, 2014 Rise Set
Actual Time 6:56 AM CDT 7:06 PM CDT
Civil Twilight 6:32 AM CDT 7:30 PM CDT
Nautical Twilight 6:04 AM CDT 7:58 PM CDT
Astronomical Twilight 5:35 AM CDT 8:26 PM CDT
Moon 4:38 AM CDT 5:36 PM CDT
Length of Visible Light 12h 58m
Length of Day
12h 10m
Tomorrow will be 1m 51s shorter.
Waning Crescent, 6% of the Moon is Illuminated
Today
Waning Crescent
Sep 24
New
Oct 1
First Quarter
Oct 8
Full
Oct 15
Last Quarter

Today's Extremes

State Highs State Lows

Community

WunderPhotos

Upload Photos

1,755,197 photos uploaded!

WunderBlogs® & News

Nearby

Snow Depth

Station Depth Elevation
No new snow has been reported.

Earthquake Activity

City Distance Mag. Time & Date
No recent earthquake activity has been reported nearby.
Minimum magnitude displayed is 2.5.

Coastal Water Temperatures

Place Temperature
No Stations Reporting

Nearby Weather Stations